Time;durP1;ratioP1;P1;durP2;ratioP2;P2;SDS_P1;SDS_P2;PMS_P1;PMS_P2;Temp;Humidity;BMP_temperature;BMP_pressure;BME280_temperature;BME280_humidity;BME280_pressure;Samples;Min_cycle;Max_cycle;Signal;HPM_P1;HPM_P2
2022/07/13 00:02:05;;;;;;;7.20;3.40;;;22.70;99.90;;;;;;5062905;28;20058;-61
2022/07/13 00:04:31;;;;;;;5.72;3.08;;;22.60;99.90;;;;;;5071425;28;20052;-61
2022/07/13 00:06:56;;;;;;;4.78;3.15;;;22.60;99.90;;;;;;5066721;28;20048;-61
2022/07/13 00:09:22;;;;;;;4.18;3.00;;;22.70;99.90;;;;;;5067594;28;20478;-61
2022/07/13 00:11:48;;;;;;;5.38;3.05;;;22.60;99.90;;;;;;5067057;28;20394;-61
2022/07/13 00:14:13;;;;;;;5.00;3.50;;;22.60;99.90;;;;;;5071506;28;20044;-61
2022/07/13 00:16:39;;;;;;;4.72;3.17;;;22.60;99.90;;;;;;5064363;28;20048;-61
2022/07/13 00:19:05;;;;;;;7.32;3.33;;;22.60;99.90;;;;;;5051361;28;20040;-61
2022/07/13 00:21:31;;;;;;;4.50;3.35;;;22.60;99.90;;;;;;5062982;28;20116;-61
2022/07/13 00:23:56;;;;;;;3.60;3.00;;;22.50;99.90;;;;;;5070592;28;20040;-61
2022/07/13 00:26:22;;;;;;;4.32;3.13;;;22.50;99.90;;;;;;5071603;28;20382;-61
2022/07/13 00:28:48;;;;;;;6.15;3.50;;;22.50;99.90;;;;;;5070998;28;20047;-61
2022/07/13 00:31:13;;;;;;;4.70;3.40;;;22.50;99.90;;;;;;5070814;28;20067;-61
2022/07/13 00:33:39;;;;;;;6.15;3.67;;;22.50;99.90;;;;;;5066648;28;20045;-61
2022/07/13 00:36:05;;;;;;;8.20;4.15;;;22.50;99.90;;;;;;5061951;28;20048;-61
2022/07/13 00:38:30;;;;;;;4.38;3.70;;;22.50;99.90;;;;;;5071044;28;20562;-61
2022/07/13 00:40:56;;;;;;;5.80;3.50;;;22.40;99.90;;;;;;5071038;28;20084;-61
2022/07/13 00:43:22;;;;;;;6.03;3.97;;;22.50;99.90;;;;;;5068701;28;20036;-61
2022/07/13 00:45:50;;;;;;;4.57;3.70;;;22.50;99.90;;;;;;5070930;28;20044;-60
2022/07/13 00:48:15;;;;;;;5.63;4.18;;;22.50;99.90;;;;;;5070551;28;20131;-61
2022/07/13 00:50:41;;;;;;;7.43;3.90;;;22.50;99.90;;;;;;5070909;28;20119;-60
2022/07/13 00:53:07;;;;;;;5.57;3.80;;;22.40;99.90;;;;;;5067632;28;20053;-60
2022/07/13 00:55:33;;;;;;;4.68;3.70;;;22.40;99.90;;;;;;5071141;28;20071;-60
2022/07/13 00:57:59;;;;;;;5.72;3.75;;;22.40;99.90;;;;;;5070524;28;20141;-60
2022/07/13 01:00:25;;;;;;;5.35;4.10;;;22.40;99.90;;;;;;5069191;28;20060;-60
2022/07/13 01:02:51;;;;;;;5.20;3.50;;;22.40;99.90;;;;;;5069056;28;20045;-60
2022/07/13 01:05:17;;;;;;;5.32;3.78;;;22.40;99.90;;;;;;5062411;28;20049;-60
2022/07/13 01:07:44;;;;;;;6.03;4.20;;;22.40;99.90;;;;;;5060054;28;20080;-60
2022/07/13 01:10:11;;;;;;;6.03;3.97;;;22.40;99.90;;;;;;5066028;28;20527;-60
2022/07/13 01:12:38;;;;;;;5.25;3.97;;;22.40;99.90;;;;;;5060610;28;20135;-61
2022/07/13 01:15:05;;;;;;;8.35;3.85;;;22.40;99.90;;;;;;5067417;28;20044;-60
2022/07/13 01:17:33;;;;;;;6.35;4.55;;;22.40;99.90;;;;;;5070936;28;20500;-60
2022/07/13 01:20:00;;;;;;;5.88;4.00;;;22.40;99.90;;;;;;5063257;28;20060;-60
2022/07/13 01:22:32;;;;;;;5.35;4.47;;;22.30;99.90;;;;;;5062656;28;20048;-60
2022/07/13 01:24:58;;;;;;;6.10;4.70;;;22.30;99.90;;;;;;5065715;28;20131;-60
2022/07/13 01:27:24;;;;;;;5.15;4.35;;;22.30;99.90;;;;;;5067912;28;20040;-60
2022/07/13 01:29:51;;;;;;;6.53;4.43;;;22.30;99.90;;;;;;5068597;28;20052;-61
2022/07/13 01:32:17;;;;;;;6.65;4.28;;;22.30;99.90;;;;;;5070280;28;20390;-60
2022/07/13 01:34:42;;;;;;;6.18;4.50;;;22.30;99.90;;;;;;5065133;28;20048;-60
2022/07/13 01:37:09;;;;;;;6.05;4.72;;;22.30;99.90;;;;;;5064349;28;20090;-60
2022/07/13 01:39:35;;;;;;;6.38;4.40;;;22.30;99.90;;;;;;5067069;28;20052;-60
2022/07/13 01:42:00;;;;;;;7.47;4.82;;;22.30;99.90;;;;;;5070348;28;20044;-60
2022/07/13 01:44:26;;;;;;;4.93;4.00;;;22.20;99.90;;;;;;5069704;28;20080;-60
2022/07/13 01:46:52;;;;;;;4.80;4.20;;;22.20;99.90;;;;;;5068407;28;20056;-60
2022/07/13 01:49:18;;;;;;;6.93;4.70;;;22.20;99.90;;;;;;5055921;28;20048;-61
2022/07/13 01:51:43;;;;;;;8.07;4.68;;;22.20;99.90;;;;;;5070776;28;20469;-61
2022/07/13 01:54:09;;;;;;;7.63;5.28;;;22.20;99.90;;;;;;5062637;28;20053;-61
2022/07/13 01:56:35;;;;;;;6.85;4.65;;;22.10;99.90;;;;;;5068330;28;20056;-61
2022/07/13 01:59:01;;;;;;;7.25;4.57;;;22.10;99.90;;;;;;5066333;28;20056;-60
2022/07/13 02:01:27;;;;;;;6.03;4.90;;;22.10;99.90;;;;;;5067810;28;20420;-61
2022/07/13 02:03:53;;;;;;;6.95;5.20;;;22.10;99.90;;;;;;5065939;28;20099;-61
2022/07/13 02:06:19;;;;;;;6.90;5.43;;;22.10;99.90;;;;;;5067174;28;20048;-61
2022/07/13 02:08:45;;;;;;;8.82;5.43;;;22.10;99.90;;;;;;5072532;28;20048;-61
2022/07/13 02:11:18;;;;;;;7.30;5.10;;;22.10;99.90;;;;;;5056895;28;20072;-61
2022/07/13 02:13:45;;;;;;;5.75;5.00;;;22.10;99.90;;;;;;5038117;28;20451;-61
2022/07/13 02:16:14;;;;;;;8.40;5.05;;;22.00;99.90;;;;;;5055952;28;20037;-61
2022/07/13 02:18:41;;;;;;;6.50;4.80;;;22.10;99.90;;;;;;5063613;28;20120;-61
2022/07/13 02:21:06;;;;;;;7.78;4.90;;;22.00;99.90;;;;;;5053641;28;20045;-61
2022/07/13 02:23:32;;;;;;;7.57;4.97;;;22.00;99.90;;;;;;5054012;28;20040;-60
2022/07/13 02:25:58;;;;;;;7.20;4.68;;;22.00;99.90;;;;;;5053457;28;20088;-60
2022/07/13 02:28:23;;;;;;;6.38;5.25;;;22.00;99.90;;;;;;5057797;28;20063;-60
2022/07/13 02:30:49;;;;;;;7.47;5.38;;;22.00;99.90;;;;;;5052864;28;20406;-62
2022/07/13 02:33:15;;;;;;;7.55;4.97;;;21.90;99.90;;;;;;5053507;28;20252;-61
2022/07/13 02:35:41;;;;;;;6.75;4.90;;;21.90;99.90;;;;;;5055943;28;20043;-60
2022/07/13 02:38:07;;;;;;;6.38;5.30;;;21.90;99.90;;;;;;5071088;28;20073;-60
2022/07/13 02:40:32;;;;;;;6.40;5.30;;;21.90;99.90;;;;;;5059488;28;20049;-60
2022/07/13 02:42:58;;;;;;;7.70;5.35;;;21.80;99.90;;;;;;5060769;28;20469;-61
2022/07/13 02:45:24;;;;;;;7.15;5.07;;;21.80;99.90;;;;;;5072590;28;20151;-61
2022/07/13 02:47:49;;;;;;;10.07;5.82;;;21.80;99.90;;;;;;5071725;28;20052;-62
2022/07/13 02:50:15;;;;;;;5.85;5.10;;;21.80;99.90;;;;;;5071688;28;20508;-61
2022/07/13 02:52:41;;;;;;;5.18;4.60;;;21.80;99.90;;;;;;5073173;28;20409;-61
2022/07/13 02:55:08;;;;;;;9.45;5.53;;;21.70;99.90;;;;;;5069807;28;20048;-61
2022/07/13 02:57:33;;;;;;;5.88;5.20;;;21.70;99.90;;;;;;5083305;28;20051;-60
2022/07/13 02:59:59;;;;;;;7.13;5.20;;;21.70;99.90;;;;;;5070263;28;20060;-63
2022/07/13 03:02:25;;;;;;;7.88;5.40;;;21.70;99.90;;;;;;5071979;28;20060;-60
2022/07/13 03:04:51;;;;;;;6.00;5.18;;;21.70;99.90;;;;;;5071920;28;20394;-61
2022/07/13 03:07:16;;;;;;;7.53;5.07;;;21.70;99.90;;;;;;5072673;28;20045;-61
2022/07/13 03:09:42;;;;;;;6.88;5.70;;;21.60;99.90;;;;;;5070900;28;20048;-61
2022/07/13 03:12:08;;;;;;;7.38;5.18;;;21.70;99.90;;;;;;5070607;28;20131;-60
2022/07/13 03:14:34;;;;;;;8.18;5.65;;;21.60;99.90;;;;;;5073173;28;20040;-60
2022/07/13 03:17:00;;;;;;;6.55;5.70;;;21.70;99.90;;;;;;5064575;28;20389;-60
2022/07/13 03:19:26;;;;;;;7.07;5.00;;;21.70;99.90;;;;;;5072353;28;20052;-60
2022/07/13 03:21:51;;;;;;;5.78;5.18;;;21.70;99.90;;;;;;5066373;28;20411;-60
2022/07/13 03:24:17;;;;;;;7.38;5.95;;;21.60;99.90;;;;;;5072784;28;20055;-60
2022/07/13 03:26:42;;;;;;;6.65;5.32;;;21.60;99.90;;;;;;5071331;28;20378;-60
2022/07/13 03:29:08;;;;;;;5.72;4.95;;;21.60;99.90;;;;;;5058404;28;20470;-61
2022/07/13 03:31:34;;;;;;;7.28;5.40;;;21.60;99.90;;;;;;5053535;28;20052;-60
2022/07/13 03:34:00;;;;;;;7.78;5.82;;;21.60;99.90;;;;;;5071198;28;20351;-60
2022/07/13 03:36:25;;;;;;;8.75;5.78;;;21.60;99.90;;;;;;5072165;28;20052;-61
2022/07/13 03:38:51;;;;;;;6.00;5.13;;;21.60;99.90;;;;;;5071984;28;20084;-61
2022/07/13 03:41:17;;;;;;;6.65;5.15;;;21.60;99.90;;;;;;5071611;28;20447;-60
2022/07/13 03:43:43;;;;;;;7.88;5.90;;;21.50;99.90;;;;;;5070148;28;20040;-60
2022/07/13 03:46:08;;;;;;;6.45;5.43;;;21.50;99.90;;;;;;5071859;28;20036;-60
2022/07/13 03:48:34;;;;;;;8.82;5.57;;;21.50;99.90;;;;;;5071218;28;20040;-60
2022/07/13 03:51:00;;;;;;;6.47;5.75;;;21.50;99.90;;;;;;5068512;28;20090;-60
2022/07/13 03:53:26;;;;;;;5.85;5.20;;;21.50;99.90;;;;;;5069793;28;20106;-60
2022/07/13 03:55:51;;;;;;;6.18;4.93;;;21.50;99.90;;;;;;5053945;28;20080;-60
2022/07/13 03:58:17;;;;;;;8.00;5.15;;;21.50;99.90;;;;;;5068191;28;20116;-61
2022/07/13 04:00:43;;;;;;;6.28;5.45;;;21.50;99.90;;;;;;5063458;28;20056;-60
2022/07/13 04:03:09;;;;;;;5.80;5.20;;;21.40;99.90;;;;;;5064645;28;20047;-60
2022/07/13 04:05:34;;;;;;;6.28;5.32;;;21.40;99.90;;;;;;5069743;28;20052;-60
2022/07/13 04:08:00;;;;;;;6.30;5.15;;;21.40;99.90;;;;;;5070440;28;20041;-60
2022/07/13 04:10:26;;;;;;;7.35;5.43;;;21.50;99.90;;;;;;5069047;28;20477;-60
2022/07/13 04:12:51;;;;;;;7.00;5.03;;;21.40;99.90;;;;;;5060315;28;20102;-60
2022/07/13 04:15:17;;;;;;;6.15;5.30;;;21.40;99.90;;;;;;5067654;28;20072;-60
2022/07/13 04:17:43;;;;;;;6.60;5.13;;;21.40;99.90;;;;;;5062255;28;20047;-60
2022/07/13 04:20:10;;;;;;;5.97;5.35;;;21.50;99.90;;;;;;5070966;28;20036;-63
2022/07/13 04:22:37;;;;;;;6.82;5.30;;;21.40;99.90;;;;;;5053608;28;20048;-59
2022/07/13 04:25:03;;;;;;;6.20;4.88;;;21.50;99.90;;;;;;5064786;28;20439;-60
2022/07/13 04:27:29;;;;;;;6.80;5.00;;;21.40;99.90;;;;;;5060099;28;20045;-59
2022/07/13 04:29:55;;;;;;;7.15;5.43;;;21.40;99.90;;;;;;5071075;28;20060;-59
2022/07/13 04:32:21;;;;;;;6.80;4.68;;;21.40;99.90;;;;;;5065110;28;20143;-60
2022/07/13 04:34:47;;;;;;;6.28;4.90;;;21.40;99.90;;;;;;5058688;28;20029;-60
2022/07/13 04:37:12;;;;;;;6.78;5.25;;;21.50;99.90;;;;;;5066031;28;20105;-59
2022/07/13 04:39:41;;;;;;;6.97;5.05;;;21.50;99.90;;;;;;5069631;28;20135;-60
2022/07/13 04:42:08;;;;;;;6.30;4.90;;;21.50;99.90;;;;;;5071346;28;20077;-61
2022/07/13 04:44:33;;;;;;;5.90;4.88;;;21.50;99.90;;;;;;5069298;28;20051;-60
2022/07/13 04:46:59;;;;;;;6.40;4.70;;;21.50;99.90;;;;;;5060972;28;20041;-60
2022/07/13 04:49:25;;;;;;;7.50;5.15;;;21.50;99.90;;;;;;5070699;28;20473;-60
2022/07/13 04:51:51;;;;;;;6.28;5.40;;;21.50;99.90;;;;;;5070575;28;20500;-60
2022/07/13 04:54:21;;;;;;;7.13;5.10;;;21.50;99.90;;;;;;5070658;28;20051;-60
2022/07/13 04:56:48;;;;;;;8.18;5.10;;;21.50;99.90;;;;;;5068313;28;20566;-60
2022/07/13 04:59:14;;;;;;;7.13;5.35;;;21.50;99.90;;;;;;5064113;28;20044;-60
2022/07/13 05:01:41;;;;;;;7.85;5.68;;;21.50;99.90;;;;;;5062549;28;20051;-60
2022/07/13 05:04:07;;;;;;;6.78;5.18;;;21.60;99.90;;;;;;5058224;28;20110;-60
2022/07/13 05:06:32;;;;;;;7.93;5.93;;;21.50;99.90;;;;;;5059993;28;20581;-60
2022/07/13 05:08:59;;;;;;;7.05;5.78;;;21.50;99.90;;;;;;5062879;28;20055;-60
2022/07/13 05:11:25;;;;;;;6.80;6.10;;;21.50;99.90;;;;;;5056446;28;20052;-60
2022/07/13 05:13:51;;;;;;;7.28;5.55;;;21.50;99.90;;;;;;5032921;28;20410;-60
2022/07/13 05:16:18;;;;;;;7.65;5.78;;;21.50;99.90;;;;;;5055204;28;20032;-62
2022/07/13 05:18:44;;;;;;;6.45;5.75;;;21.50;99.90;;;;;;5050111;28;20099;-62
2022/07/13 05:21:13;;;;;;;7.68;6.03;;;21.50;99.90;;;;;;5050542;28;20055;-60
2022/07/13 05:23:39;;;;;;;9.15;6.10;;;21.50;99.90;;;;;;5057984;28;20033;-61
2022/07/13 05:26:04;;;;;;;7.57;6.65;;;21.50;99.90;;;;;;5050516;28;20359;-60
2022/07/13 05:28:31;;;;;;;8.45;6.53;;;21.40;99.90;;;;;;5052442;28;20033;-60
2022/07/13 05:30:57;;;;;;;9.48;6.38;;;21.50;99.90;;;;;;5050667;28;20088;-60
2022/07/13 05:33:23;;;;;;;8.48;6.35;;;21.50;99.90;;;;;;5049709;28;20517;-60
2022/07/13 05:35:49;;;;;;;10.00;6.20;;;21.40;99.90;;;;;;5053321;28;20041;-60
2022/07/13 05:38:15;;;;;;;7.05;6.35;;;21.50;99.90;;;;;;5057100;28;20045;-61
2022/07/13 05:40:40;;;;;;;8.65;6.65;;;21.40;99.90;;;;;;5069181;28;20045;-60
2022/07/13 05:43:06;;;;;;;9.32;7.43;;;21.50;99.90;;;;;;5055038;28;20080;-61
2022/07/13 05:45:32;;;;;;;8.27;7.35;;;21.40;99.90;;;;;;5068142;28;20112;-61
2022/07/13 05:47:58;;;;;;;8.65;6.68;;;21.50;99.90;;;;;;5069946;28;20094;-61
2022/07/13 05:50:24;;;;;;;8.00;6.85;;;21.50;99.90;;;;;;5069862;28;20567;-60
2022/07/13 05:52:50;;;;;;;8.07;6.85;;;21.50;99.90;;;;;;5069274;28;20040;-61
2022/07/13 05:55:16;;;;;;;8.30;6.78;;;21.50;99.90;;;;;;5069764;28;20074;-60
2022/07/13 05:57:44;;;;;;;10.85;8.13;;;21.50;99.90;;;;;;5068193;28;20486;-60
2022/07/13 06:00:14;;;;;;;11.35;7.57;;;21.50;99.90;;;;;;5069382;28;20093;-60
2022/07/13 06:02:41;;;;;;;10.13;7.38;;;21.50;99.90;;;;;;5069825;28;20123;-60
2022/07/13 06:05:08;;;;;;;9.65;7.55;;;21.50;99.90;;;;;;5070259;28;20057;-60
2022/07/13 06:07:34;;;;;;;9.50;7.75;;;21.50;99.90;;;;;;5055260;28;20045;-60
2022/07/13 06:10:01;;;;;;;9.77;7.65;;;21.50;99.90;;;;;;5069650;28;20451;-60
2022/07/13 06:12:28;;;;;;;13.13;8.60;;;21.50;99.90;;;;;;5069742;28;20055;-64
2022/07/13 06:14:54;;;;;;;11.50;8.45;;;21.60;99.90;;;;;;5070331;28;20181;-60
2022/07/13 06:17:20;;;;;;;10.23;8.30;;;21.50;99.90;;;;;;5059786;28;20044;-62
2022/07/13 06:19:46;;;;;;;11.93;8.10;;;21.50;99.90;;;;;;5067315;28;20040;-62
2022/07/13 06:22:12;;;;;;;9.40;8.15;;;21.60;99.90;;;;;;5068345;28;20048;-62
2022/07/13 06:24:37;;;;;;;10.48;8.02;;;21.60;99.90;;;;;;5069655;28;20110;-62
2022/07/13 06:27:03;;;;;;;9.45;8.30;;;21.60;99.90;;;;;;5066138;28;20142;-61
2022/07/13 06:29:29;;;;;;;10.93;9.00;;;21.70;99.90;;;;;;5064380;28;20052;-61
2022/07/13 06:31:55;;;;;;;11.38;8.82;;;21.70;99.90;;;;;;5069391;28;20114;-62
2022/07/13 06:34:20;;;;;;;9.35;8.15;;;21.80;99.90;;;;;;5070029;28;20044;-62
2022/07/13 06:36:46;;;;;;;9.88;8.45;;;21.90;99.90;;;;;;5058391;28;20045;-63
2022/07/13 06:39:12;;;;;;;11.98;8.95;;;22.00;99.90;;;;;;5065541;28;20052;-61
2022/07/13 06:41:37;;;;;;;11.15;9.07;;;22.20;99.90;;;;;;5072291;28;20059;-61
2022/07/13 06:44:03;;;;;;;11.68;8.30;;;22.30;99.90;;;;;;5073688;28;20093;-62
2022/07/13 06:46:29;;;;;;;10.43;8.85;;;22.50;99.90;;;;;;5072604;28;20110;-63
2022/07/13 06:48:54;;;;;;;12.25;8.98;;;22.60;99.90;;;;;;5063644;28;20474;-62
2022/07/13 06:51:20;;;;;;;11.32;7.68;;;22.80;99.90;;;;;;5064466;28;20397;-61
2022/07/13 06:53:46;;;;;;;8.60;7.35;;;23.60;99.90;;;;;;5051612;28;20040;-64
2022/07/13 06:56:12;;;;;;;13.43;8.00;;;24.70;99.90;;;;;;5061854;28;20393;-63
2022/07/13 06:58:37;;;;;;;11.23;7.82;;;25.90;99.90;;;;;;5060895;28;20474;-61
2022/07/13 07:01:04;;;;;;;10.23;7.53;;;27.10;99.90;;;;;;5063967;28;20072;-62
2022/07/13 07:03:29;;;;;;;15.77;8.50;;;28.00;99.90;;;;;;5058206;28;20437;-61
2022/07/13 07:05:55;;;;;;;9.40;7.75;;;28.80;98.70;;;;;;5069991;28;20044;-61
2022/07/13 07:08:21;;;;;;;10.18;6.97;;;29.40;98.30;;;;;;5067972;28;20045;-60
2022/07/13 07:10:47;;;;;;;11.50;7.05;;;30.00;97.30;;;;;;5063892;28;20041;-62
2022/07/13 07:13:13;;;;;;;11.20;6.75;;;30.50;97.20;;;;;;5051830;28;20548;-60
2022/07/13 07:15:39;;;;;;;8.45;5.72;;;30.90;96.40;;;;;;5068656;28;20494;-61
2022/07/13 07:18:06;;;;;;;13.07;6.40;;;31.30;96.50;;;;;;5061361;28;20060;-61
2022/07/13 07:20:32;;;;;;;12.98;6.38;;;31.50;96.10;;;;;;5061499;28;20044;-61
2022/07/13 07:22:57;;;;;;;8.45;6.18;;;31.40;95.90;;;;;;5052374;28;20037;-61
2022/07/13 07:25:23;;;;;;;12.55;6.50;;;31.50;95.30;;;;;;5052569;28;20055;-61
2022/07/13 07:27:50;;;;;;;9.95;6.25;;;31.80;95.40;;;;;;5052242;28;20128;-61
2022/07/13 07:30:16;;;;;;;9.27;6.25;;;31.60;94.70;;;;;;5060452;28;20056;-61
2022/07/13 07:32:41;;;;;;;10.88;6.40;;;31.80;94.70;;;;;;5051977;28;20478;-61
2022/07/13 07:35:08;;;;;;;9.20;5.85;;;32.00;94.20;;;;;;5057083;28;20516;-62
2022/07/13 07:37:34;;;;;;;8.18;5.80;;;32.20;94.40;;;;;;5058241;28;20474;-61
2022/07/13 07:40:00;;;;;;;8.63;6.78;;;;;;;;;;5070286;28;20039;-61
2022/07/13 07:42:29;;;;;;;8.55;6.22;;;;;;;;;;5071956;28;20088;-62
2022/07/13 07:44:55;;;;;;;8.80;6.47;;;;;;;;;;5072051;28;20052;-62
2022/07/13 07:47:23;;;;;;;12.55;6.93;;;32.60;94.00;;;;;;5072150;28;20047;-63
2022/07/13 07:49:49;;;;;;;8.70;6.90;;;34.00;93.00;;;;;;5071869;28;20048;-62
2022/07/13 07:52:14;;;;;;;12.55;7.20;;;33.80;92.70;;;;;;5064338;28;20098;-62
2022/07/13 07:54:40;;;;;;;8.88;7.57;;;33.90;92.50;;;;;;5071884;28;20106;-62
2022/07/13 07:57:06;;;;;;;11.10;7.50;;;34.00;92.40;;;;;;5052313;28;20159;-62
2022/07/13 07:59:31;;;;;;;11.65;8.60;;;34.00;92.40;;;;;;5049138;28;20099;-62
2022/07/13 08:02:07;;;;;;;9.80;7.88;;;34.00;92.10;;;;;;5066579;28;20040;-62
2022/07/13 08:04:33;;;;;;;9.15;7.63;;;34.10;92.10;;;;;;5050335;28;20071;-61
2022/07/13 08:07:00;;;;;;;9.50;7.70;;;34.20;92.10;;;;;;5055156;28;20183;-62
2022/07/13 08:09:27;;;;;;;9.98;7.88;;;34.40;91.50;;;;;;5057662;28;20045;-62
2022/07/13 08:11:53;;;;;;;8.82;6.97;;;34.70;91.50;;;;;;5059627;28;20045;-65
2022/07/13 08:14:19;;;;;;;9.20;6.60;;;35.00;91.00;;;;;;5052885;28;20106;-62
2022/07/13 08:16:44;;;;;;;13.68;6.53;;;35.40;91.20;;;;;;5049851;28;20466;-62
2022/07/13 08:19:10;;;;;;;9.27;6.53;;;35.50;90.50;;;;;;5071700;28;20052;-62
2022/07/13 08:21:36;;;;;;;8.38;5.75;;;35.30;90.40;;;;;;5071525;28;20048;-62
2022/07/13 08:24:02;;;;;;;9.82;6.22;;;35.60;89.60;;;;;;5069984;28;20068;-63
2022/07/13 08:26:29;;;;;;;9.02;5.95;;;35.60;89.20;;;;;;5070304;28;20048;-62
2022/07/13 08:28:57;;;;;;;10.52;6.28;;;35.60;89.60;;;;;;5053441;28;20334;-62
2022/07/13 08:31:23;;;;;;;8.23;6.15;;;35.50;89.90;;;;;;5071477;28;20055;-62
2022/07/13 08:39:20;;;;;;;6.32;4.63;;;35.90;88.50;;;;;;5058254;28;20045;-62
2022/07/13 08:41:46;;;;;;;7.57;5.15;;;36.30;88.30;;;;;;5057280;28;20486;-63
2022/07/13 08:44:12;;;;;;;9.15;5.15;;;36.50;87.70;;;;;;5050860;28;20449;-62
2022/07/13 08:46:39;;;;;;;7.72;4.40;;;36.80;86.60;;;;;;5054655;28;20055;-61
2022/07/13 08:49:06;;;;;;;7.18;4.28;;;36.90;85.50;;;;;;5066230;28;20047;-64
2022/07/13 08:51:32;;;;;;;7.28;4.30;;;37.20;84.50;;;;;;5053887;28;20055;-61
2022/07/13 08:53:59;;;;;;;9.65;4.28;;;37.00;83.50;;;;;;5056427;28;20498;-61
2022/07/13 08:56:25;;;;;;;6.30;3.60;;;37.10;84.00;;;;;;5055682;28;20225;-61
2022/07/13 08:58:52;;;;;;;6.25;3.83;;;37.30;83.90;;;;;;5067263;28;20150;-61
2022/07/13 09:01:19;;;;;;;6.07;3.63;;;37.30;81.70;;;;;;5064455;28;20053;-62
2022/07/13 09:03:46;;;;;;;4.90;3.03;;;37.40;81.90;;;;;;5060719;28;20546;-62
2022/07/13 09:06:39;;;;;;;7.95;4.07;;;37.60;81.70;;;;;;5050863;28;20045;-62
2022/07/13 09:09:23;;;;;;;5.43;3.22;;;37.70;80.70;;;;;;5054229;28;20094;-62
2022/07/13 09:11:48;;;;;;;6.57;3.38;;;37.60;80.40;;;;;;5069371;28;20049;-62
2022/07/13 09:14:27;;;;;;;7.05;3.80;;;37.00;80.90;;;;;;5060236;28;20118;-61
2022/07/13 09:16:53;;;;;;;5.47;4.28;;;36.80;79.80;;;;;;5060013;28;20449;-61
2022/07/13 09:19:24;;;;;;;6.68;4.05;;;36.80;80.50;;;;;;5067047;28;20094;-62
2022/07/13 09:21:50;;;;;;;6.05;3.97;;;36.90;80.70;;;;;;5066221;28;20098;-62
2022/07/13 09:24:17;;;;;;;5.32;3.50;;;36.90;79.70;;;;;;5064912;28;20394;-62
2022/07/13 09:26:45;;;;;;;8.38;3.38;;;36.40;78.90;;;;;;5068272;28;20513;-62
2022/07/13 09:29:11;;;;;;;7.50;3.88;;;36.20;79.80;;;;;;5066074;28;20052;-61
2022/07/13 09:31:54;;;;;;;7.28;3.92;;;36.20;81.20;;;;;;5054369;28;20130;-62
2022/07/13 09:34:46;;;;;;;9.15;3.55;;;36.30;81.30;;;;;;5055852;28;20032;-61
2022/07/13 09:37:15;;;;;;;4.95;2.47;;;36.50;80.60;;;;;;5048702;28;20057;-62
2022/07/13 09:40:00;;;;;;;6.50;2.70;;;36.60;79.40;;;;;;5070510;28;20442;-62
2022/07/13 09:42:31;;;;;;;4.07;2.50;;;36.10;78.70;;;;;;5053448;28;20446;-62
2022/07/13 09:47:54;;;;;;;3.65;2.40;;;34.70;79.20;;;;;;5050489;28;20049;-63
2022/07/13 09:50:24;;;;;;;7.35;3.38;;;34.80;79.70;;;;;;5050736;28;20089;-62
2022/07/13 09:52:52;;;;;;;5.25;3.03;;;34.90;79.50;;;;;;5051130;28;20045;-63
2022/07/13 09:55:24;;;;;;;5.38;3.88;;;34.60;80.40;;;;;;5057873;28;20045;-62
2022/07/13 09:58:02;;;;;;;6.22;3.92;;;34.40;80.80;;;;;;5052055;28;20045;-62
2022/07/13 10:00:28;;;;;;;9.40;3.88;;;;;;;;;;5047411;28;20647;-61
2022/07/13 10:02:55;;;;;;;6.28;4.10;;;;;;;;;;5054978;28;20045;-63
2022/07/13 10:05:21;;;;;;;4.78;3.30;;;33.80;80.70;;;;;;5049172;28;20041;-62
2022/07/13 10:07:47;;;;;;;7.35;3.28;;;32.90;81.90;;;;;;5051357;28;20462;-62
2022/07/13 10:10:17;;;;;;;4.85;2.70;;;32.70;81.90;;;;;;5048646;28;20049;-61
2022/07/13 10:12:44;;;;;;;4.70;2.53;;;32.50;81.20;;;;;;5053718;28;20107;-61
2022/07/13 10:15:12;;;;;;;5.40;2.42;;;32.50;81.40;;;;;;5052474;28;20120;-62
2022/07/13 10:17:38;;;;;;;4.90;1.98;;;32.40;81.90;;;;;;5055942;28;20068;-62
2022/07/13 10:20:11;;;;;;;4.15;2.13;;;32.30;81.00;;;;;;5055352;28;20434;-62
2022/07/13 10:22:43;;;;;;;5.32;2.28;;;32.20;80.60;;;;;;5059724;28;20080;-61
2022/07/13 10:25:09;;;;;;;3.90;1.90;;;31.70;81.90;;;;;;5067709;28;20060;-62
2022/07/13 10:27:36;;;;;;;4.07;1.70;;;31.60;79.40;;;;;;5072467;28;20140;-62
2022/07/13 10:30:06;;;;;;;3.45;2.05;;;31.70;79.70;;;;;;5073029;28;20071;-62
2022/07/13 10:32:34;;;;;;;5.50;2.25;;;31.80;79.20;;;;;;5061640;28;20071;-61
2022/07/13 10:35:04;;;;;;;4.50;1.70;;;31.50;79.20;;;;;;5073457;28;20052;-61
2022/07/13 10:37:55;;;;;;;2.65;1.73;;;31.30;79.50;;;;;;5059273;28;20555;-61
2022/07/13 10:40:26;;;;;;;4.85;2.17;;;31.30;79.50;;;;;;5071848;28;20171;-61
2022/07/13 10:42:57;;;;;;;5.15;2.30;;;31.10;79.80;;;;;;5071475;28;20037;-61
2022/07/13 10:45:38;;;;;;;3.00;2.00;;;31.20;80.00;;;;;;5073663;28;20040;-61
2022/07/13 10:48:30;;;;;;;3.67;2.00;;;31.40;81.60;;;;;;5071811;28;20401;-61
2022/07/13 10:51:01;;;;;;;4.40;2.10;;;31.10;80.20;;;;;;5071172;28;20056;-60
2022/07/13 10:53:39;;;;;;;3.67;2.42;;;30.90;81.50;;;;;;5062054;28;20119;-61
2022/07/13 10:56:15;;;;;;;3.58;2.13;;;30.90;81.40;;;;;;5068736;28;20052;-61
2022/07/13 10:58:42;;;;;;;4.10;2.30;;;30.70;82.20;;;;;;5073208;28;20044;-61
2022/07/13 11:01:49;;;;;;;5.80;2.40;;;30.20;81.80;;;;;;5072081;28;20065;-62
2022/07/13 11:04:17;;;;;;;4.30;2.00;;;30.10;81.70;;;;;;5042044;28;20044;-63
2022/07/13 11:07:04;;;;;;;2.55;1.92;;;30.10;82.30;;;;;;5050428;28;20049;-64
2022/07/13 11:09:30;;;;;;;3.92;2.20;;;29.70;82.60;;;;;;5061484;28;20131;-62
2022/07/13 11:11:56;;;;;;;3.20;2.10;;;29.50;84.20;;;;;;5072609;28;20190;-62
2022/07/13 11:14:39;;;;;;;4.57;2.15;;;29.70;84.20;;;;;;5067464;28;20154;-62
2022/07/13 11:17:23;;;;;;;3.15;1.90;;;29.70;84.80;;;;;;5071897;28;20155;-61
2022/07/13 11:20:05;;;;;;;2.95;1.60;;;29.90;83.30;;;;;;5072953;28;20040;-62
2022/07/13 11:25:32;;;;;;;3.30;1.88;;;29.40;84.80;;;;;;5054272;28;20075;-62
2022/07/13 11:28:16;;;;;;;8.90;2.38;;;29.30;84.70;;;;;;5066747;28;20040;-62
2022/07/13 11:30:44;;;;;;;4.90;2.25;;;29.10;86.90;;;;;;5072575;28;20128;-62
2022/07/13 11:33:13;;;;;;;3.75;2.10;;;29.10;86.80;;;;;;5071746;28;20098;-62
2022/07/13 11:35:45;;;;;;;3.38;2.00;;;29.00;86.80;;;;;;5068156;28;20496;-62
2022/07/13 11:38:13;;;;;;;3.60;2.07;;;29.10;87.40;;;;;;5061027;28;20048;-62
2022/07/13 11:40:39;;;;;;;4.18;2.08;;;29.00;87.40;;;;;;5072450;28;20287;-62
2022/07/13 11:43:08;;;;;;;4.45;2.50;;;29.10;88.50;;;;;;5071934;28;20528;-62
2022/07/13 11:45:34;;;;;;;4.65;2.10;;;29.10;88.20;;;;;;5070756;28;20270;-62
2022/07/13 11:48:04;;;;;;;5.07;2.20;;;29.00;87.60;;;;;;5071250;28;20482;-62
2022/07/13 11:50:50;;;;;;;4.72;2.13;;;29.00;87.30;;;;;;5088183;28;20535;-62
2022/07/13 11:53:21;;;;;;;5.70;2.22;;;29.10;88.00;;;;;;5070246;28;20056;-62
2022/07/13 11:55:47;;;;;;;4.47;2.22;;;29.10;89.80;;;;;;5070168;28;20048;-62
2022/07/13 11:58:23;;;;;;;5.78;2.10;;;29.20;90.70;;;;;;5071253;28;20084;-62
2022/07/13 12:00:49;;;;;;;4.93;1.92;;;29.00;90.80;;;;;;5071872;28;20078;-62
2022/07/13 12:03:15;;;;;;;5.25;2.00;;;29.00;90.90;;;;;;5071446;28;20052;-62
2022/07/13 12:05:49;;;;;;;4.55;1.70;;;29.00;91.00;;;;;;5068872;28;20040;-62
2022/07/13 12:08:16;;;;;;;3.88;2.10;;;28.70;90.50;;;;;;5071157;28;20124;-62
2022/07/13 12:10:42;;;;;;;5.78;2.03;;;28.40;91.30;;;;;;5071944;28;20142;-62
2022/07/13 12:13:08;;;;;;;5.60;2.20;;;;;;;;;;5071168;28;20102;-62
2022/07/13 12:15:34;;;;;;;7.40;2.35;;;;;;;;;;5071583;28;20106;-62
2022/07/13 12:18:05;;;;;;;7.30;2.13;;;;;;;;;;5069547;28;20045;-62
2022/07/13 12:20:33;;;;;;;6.28;2.13;;;28.20;91.70;;;;;;5070300;28;20434;-62
2022/07/13 12:22:59;;;;;;;8.50;2.72;;;27.30;92.80;;;;;;5071487;28;20045;-62
2022/07/13 12:25:32;;;;;;;4.25;2.30;;;27.30;92.90;;;;;;5070129;28;20043;-62
2022/07/13 12:28:01;;;;;;;6.65;2.30;;;27.40;92.80;;;;;;5069687;28;20048;-63
2022/07/13 12:30:28;;;;;;;4.88;2.40;;;27.40;92.80;;;;;;5070888;28;20033;-63
2022/07/13 12:33:12;;;;;;;6.60;2.80;;;27.10;93.40;;;;;;5071701;28;20133;-62
2022/07/13 12:35:41;;;;;;;;;;;26.70;93.80;;;;;;5068642;28;20048;-62
2022/07/13 12:38:11;;;;;;;5.93;2.58;;;26.50;94.20;;;;;;5068911;28;19920;-62
2022/07/13 12:40:45;;;;;;;7.00;2.92;;;26.40;94.50;;;;;;5071261;28;20060;-62
2022/07/13 12:43:22;;;;;;;7.25;2.60;;;26.40;94.50;;;;;;5069684;28;20224;-65
2022/07/13 12:46:00;;;;;;;5.60;2.45;;;26.40;94.60;;;;;;5071134;28;20078;-62
2022/07/13 12:48:35;;;;;;;7.47;2.90;;;26.30;94.80;;;;;;5064093;28;20051;-62
2022/07/13 12:51:13;;;;;;;7.40;2.40;;;26.30;94.70;;;;;;5071376;28;20087;-63
2022/07/13 12:53:47;;;;;;;5.72;2.38;;;26.20;94.70;;;;;;5071003;28;20460;-62
2022/07/13 12:56:13;;;;;;;;;;;26.10;94.80;;;;;;5066354;28;20079;-66
2022/07/13 12:58:44;;;;;;;5.03;2.42;;;26.00;94.60;;;;;;5068733;28;19924;-62
2022/07/13 13:01:25;;;;;;;4.78;2.20;;;25.80;95.00;;;;;;5071056;28;20148;-62
2022/07/13 13:03:51;;;;;;;6.22;2.42;;;25.90;94.30;;;;;;5070837;28;20048;-62